createdAt,value
2019-06-26T00:00:53.908Z,65.11
2019-06-26T00:03:23.782Z,65.83
2019-06-26T00:05:53.872Z,66.07
2019-06-26T00:08:23.782Z,65.83
2019-06-26T00:10:53.848Z,66.10
2019-06-26T00:13:26.732Z,66.67
2019-06-26T00:15:55.329Z,67.24
2019-06-26T00:18:25.058Z,67.48
2019-06-26T00:20:54.658Z,67.46
2019-06-26T00:23:24.356Z,67.77
2019-06-26T00:25:54.289Z,67.97
2019-06-26T00:28:24.400Z,68.08
2019-06-26T00:30:53.946Z,68.57
2019-06-26T00:33:23.787Z,69.03
2019-06-26T00:35:53.882Z,68.77
2019-06-26T00:38:23.660Z,68.81
2019-06-26T00:40:53.439Z,69.28
2019-06-26T00:43:23.230Z,69.37
2019-06-26T00:45:53.496Z,68.98
2019-06-26T00:48:23.270Z,70.25
2019-06-26T00:50:53.221Z,69.16
2019-06-26T00:53:22.879Z,69.78
2019-06-26T00:55:55.220Z,68.65
2019-06-26T00:58:24.896Z,68.82
2019-06-26T01:00:55.148Z,68.92
2019-06-26T01:03:25.277Z,69.72
2019-06-26T01:05:55.040Z,69.59
2019-06-26T01:08:24.934Z,69.01
2019-06-26T01:10:54.822Z,68.53
2019-06-26T01:13:24.512Z,68.38
2019-06-26T01:15:54.205Z,69.01
2019-06-26T01:18:23.969Z,68.85
2019-06-26T01:20:54.019Z,70.02
2019-06-26T01:23:23.752Z,69.89
2019-06-26T01:25:53.679Z,70.35
2019-06-26T01:28:23.667Z,70.54
2019-06-26T01:30:53.604Z,71.06
2019-06-26T01:33:23.533Z,71.44
2019-06-26T01:35:53.616Z,71.29
2019-06-26T01:38:23.446Z,72.21
2019-06-26T01:40:53.398Z,72.59
2019-06-26T01:43:23.143Z,73.55
2019-06-26T01:45:52.979Z,73.62
2019-06-26T01:48:22.682Z,73.56
2019-06-26T01:50:52.446Z,74.49
2019-06-26T01:53:22.139Z,74.92
2019-06-26T01:55:51.888Z,75.51
2019-06-26T01:58:21.543Z,75.64
2019-06-26T02:00:51.296Z,76.01
2019-06-26T02:03:20.961Z,76.38
2019-06-26T02:05:50.711Z,76.05
2019-06-26T02:08:20.381Z,76.12
2019-06-26T02:10:50.161Z,76.48
2019-06-26T02:13:19.890Z,76.42
2019-06-26T02:15:49.664Z,76.52
2019-06-26T02:18:36.205Z,76.54
2019-06-26T02:21:05.946Z,76.60
2019-06-26T02:23:35.731Z,76.26
2019-06-26T02:26:05.953Z,76.18
2019-06-26T02:28:35.695Z,76.11
2019-06-26T02:31:05.562Z,76.11
2019-06-26T02:33:35.172Z,76.72
2019-06-26T02:36:05.196Z,77.24
2019-06-26T02:38:34.833Z,77.48
2019-06-26T02:41:04.821Z,77.87
2019-06-26T02:43:35.267Z,78.10
2019-06-26T02:46:05.365Z,78.22
2019-06-26T02:48:35.096Z,78.62
2019-06-26T02:51:05.225Z,78.24
2019-06-26T02:53:35.111Z,77.25
2019-06-26T02:56:04.952Z,76.90
2019-06-26T02:58:34.624Z,77.03
2019-06-26T03:01:04.831Z,77.06
2019-06-26T03:03:34.780Z,77.13
2019-06-26T03:06:04.735Z,77.50
2019-06-26T03:08:34.743Z,77.71
2019-06-26T03:11:05.682Z,77.57
2019-06-26T03:13:36.391Z,77.87
2019-06-26T03:16:06.942Z,78.58
2019-06-26T03:18:37.288Z,79.33
2019-06-26T03:21:07.654Z,79.87
2019-06-26T03:23:38.123Z,79.62
2019-06-26T03:26:09.032Z,79.86
2019-06-26T03:28:39.818Z,79.79
2019-06-26T03:31:10.704Z,79.73
2019-06-26T03:33:41.758Z,79.89
2019-06-26T03:36:12.336Z,80.04
2019-06-26T03:38:42.948Z,79.87
2019-06-26T03:41:13.713Z,79.92
2019-06-26T03:43:44.296Z,79.70
2019-06-26T03:46:15.098Z,79.46
2019-06-26T03:48:45.868Z,79.33
2019-06-26T03:51:16.113Z,79.56
2019-06-26T03:53:47.170Z,79.38
2019-06-26T03:56:17.555Z,79.27
2019-06-26T03:58:48.084Z,79.23
2019-06-26T04:01:18.584Z,79.35
2019-06-26T04:03:49.222Z,79.68
2019-06-26T04:06:19.756Z,79.81
2019-06-26T04:08:50.468Z,79.48
2019-06-26T04:11:20.802Z,79.51
2019-06-26T04:13:51.319Z,79.75
2019-06-26T04:16:22.297Z,79.56
2019-06-26T04:18:52.948Z,79.10
2019-06-26T04:21:23.735Z,79.25
2019-06-26T04:23:53.988Z,79.08
2019-06-26T04:26:24.727Z,79.04
2019-06-26T04:28:55.220Z,79.27
2019-06-26T04:31:25.469Z,79.25
2019-06-26T04:33:55.991Z,79.17
2019-06-26T04:36:26.652Z,78.83
2019-06-26T04:38:57.278Z,78.29
2019-06-26T04:41:27.997Z,78.57
2019-06-26T04:43:58.746Z,78.09
2019-06-26T04:46:29.797Z,78.54
2019-06-26T04:49:00.139Z,77.74
2019-06-26T04:51:30.801Z,76.96
2019-06-26T04:54:01.293Z,75.68
2019-06-26T04:56:31.784Z,75.56
2019-06-26T04:59:02.271Z,74.66
2019-06-26T05:01:32.598Z,75.06
2019-06-26T05:04:02.978Z,74.64
2019-06-26T05:06:33.546Z,74.81
2019-06-26T05:09:04.915Z,74.62
2019-06-26T05:11:35.667Z,73.93
2019-06-26T05:14:06.512Z,73.71
2019-06-26T05:16:37.308Z,73.65
2019-06-26T05:19:07.717Z,73.52
2019-06-26T05:21:38.452Z,72.53
2019-06-26T05:24:09.125Z,72.04
2019-06-26T05:26:40.255Z,71.06
2019-06-26T05:29:11.068Z,69.70
2019-06-26T05:31:41.666Z,69.90
2019-06-26T05:34:12.206Z,69.90
2019-06-26T05:36:43.333Z,69.14
2019-06-26T05:39:13.720Z,69.72
2019-06-26T05:41:44.687Z,68.68
2019-06-26T05:44:15.387Z,69.24
2019-06-26T05:46:47.251Z,68.56
2019-06-26T05:49:18.053Z,68.13
2019-06-26T05:51:48.752Z,66.54
2019-06-26T05:54:19.611Z,66.54
2019-06-26T05:56:50.389Z,66.66
2019-06-26T05:59:20.887Z,66.05
2019-06-26T06:01:50.998Z,66.93
2019-06-26T06:04:22.061Z,66.95
2019-06-26T06:06:52.491Z,66.22
2019-06-26T06:09:22.945Z,66.40
2019-06-26T06:11:53.119Z,66.17
2019-06-26T06:14:23.729Z,65.42
2019-06-26T06:16:54.225Z,65.47
2019-06-26T06:19:24.611Z,64.94
2019-06-26T06:21:55.007Z,64.65
2019-06-26T06:24:25.050Z,64.83
2019-06-26T06:26:55.062Z,64.49
2019-06-26T06:29:25.310Z,64.31
2019-06-26T06:31:55.552Z,64.36
2019-06-26T06:34:25.820Z,63.41
2019-06-26T06:36:56.324Z,63.92
2019-06-26T06:39:26.739Z,62.34
2019-06-26T06:41:57.548Z,63.38
2019-06-26T06:44:28.054Z,62.77
2019-06-26T06:47:04.027Z,62.80
2019-06-26T06:49:30.589Z,63.27
2019-06-26T06:52:01.580Z,62.83
2019-06-26T06:54:32.202Z,62.69
2019-06-26T06:57:02.805Z,61.82
2019-06-26T06:59:33.392Z,62.66
2019-06-26T07:02:04.055Z,61.51
2019-06-26T07:04:34.494Z,60.64
2019-06-26T07:07:05.222Z,60.71
2019-06-26T07:09:35.914Z,60.39
2019-06-26T07:12:06.402Z,59.97
2019-06-26T07:14:37.054Z,60.10
2019-06-26T07:17:19.734Z,60.66
2019-06-26T07:19:39.707Z,59.43
2019-06-26T07:22:10.021Z,59.30
2019-06-26T07:24:40.161Z,59.11
2019-06-26T07:27:10.369Z,59.29
2019-06-26T07:29:40.633Z,59.22
2019-06-26T07:32:11.255Z,59.86
2019-06-26T07:34:41.383Z,58.95
2019-06-26T07:37:11.700Z,57.84
2019-06-26T07:39:42.079Z,58.60
2019-06-26T07:42:12.397Z,57.88
2019-06-26T07:44:42.513Z,57.24
2019-06-26T07:47:23.070Z,57.15
2019-06-26T07:49:44.642Z,56.18
2019-06-26T07:52:14.829Z,55.65
2019-06-26T07:54:45.087Z,55.81
2019-06-26T07:57:15.634Z,55.78
2019-06-26T07:59:45.968Z,55.83
2019-06-26T08:02:16.262Z,54.85
2019-06-26T08:04:46.630Z,55.14
2019-06-26T08:07:16.864Z,55.75
2019-06-26T08:09:47.225Z,54.71
2019-06-26T08:12:17.512Z,54.87
2019-06-26T08:14:47.730Z,54.75
2019-06-26T08:17:18.142Z,52.77
2019-06-26T08:19:48.376Z,53.14
2019-06-26T08:22:18.605Z,52.57
2019-06-26T08:24:49.046Z,50.50
2019-06-26T08:27:19.550Z,49.32
2019-06-26T08:29:49.990Z,50.11
2019-06-26T08:32:20.213Z,49.43
2019-06-26T08:34:50.568Z,49.62
2019-06-26T08:37:20.927Z,49.58
2019-06-26T08:39:50.846Z,49.70
2019-06-26T08:42:20.938Z,48.29
2019-06-26T08:44:50.973Z,50.04
2019-06-26T08:47:21.358Z,46.74
2019-06-26T08:49:51.683Z,48.25
2019-06-26T08:52:22.290Z,47.06
2019-06-26T08:54:52.334Z,47.35
2019-06-26T08:57:22.842Z,47.81
2019-06-26T08:59:53.280Z,45.92
2019-06-26T09:02:23.621Z,46.02
2019-06-26T09:04:53.902Z,45.25
2019-06-26T09:07:24.130Z,45.07
2019-06-26T09:09:54.213Z,44.99
2019-06-26T09:12:24.304Z,44.78
2019-06-26T09:14:54.463Z,43.92
2019-06-26T09:17:24.968Z,44.28
2019-06-26T09:19:55.332Z,42.58
2019-06-26T09:22:25.594Z,42.48
2019-06-26T09:24:55.849Z,42.03
2019-06-26T09:27:26.336Z,39.17
2019-06-26T09:29:56.379Z,37.74
2019-06-26T09:32:26.531Z,38.31
2019-06-26T09:34:56.838Z,36.00
2019-06-26T09:37:27.205Z,36.00
2019-06-26T09:39:57.644Z,36.32
2019-06-26T09:42:27.705Z,36.38
2019-06-26T09:44:57.724Z,37.87
2019-06-26T09:47:30.860Z,36.39
2019-06-26T09:49:59.547Z,36.44
2019-06-26T09:52:30.535Z,36.15
2019-06-26T09:55:00.842Z,35.57
2019-06-26T09:57:31.140Z,35.23
2019-06-26T10:00:01.283Z,37.18
2019-06-26T10:02:31.739Z,35.66
2019-06-26T10:05:01.855Z,34.93
2019-06-26T10:07:32.028Z,33.84
2019-06-26T10:10:02.375Z,34.13
2019-06-26T10:12:32.514Z,32.54
2019-06-26T10:15:02.823Z,34.55
2019-06-26T10:17:33.132Z,36.02
2019-06-26T10:20:03.263Z,35.20
2019-06-26T10:22:33.596Z,34.93
2019-06-26T10:25:03.834Z,34.00
2019-06-26T10:27:34.140Z,34.29
2019-06-26T10:30:05.942Z,33.33
2019-06-26T10:32:36.078Z,30.78
2019-06-26T10:35:07.709Z,32.26
2019-06-26T10:37:38.114Z,31.08
2019-06-26T10:40:08.637Z,30.74
2019-06-26T10:42:38.660Z,29.14
2019-06-26T10:45:10.201Z,28.35
2019-06-26T10:47:40.660Z,27.66
2019-06-26T10:50:10.985Z,30.44
2019-06-26T10:52:41.347Z,27.76
2019-06-26T10:55:12.812Z,27.65
2019-06-26T10:57:42.783Z,29.29
2019-06-26T11:00:13.430Z,27.39
2019-06-26T11:02:44.260Z,27.52
2019-06-26T11:05:15.815Z,27.37
2019-06-26T11:07:46.022Z,25.63
2019-06-26T11:10:16.755Z,26.76
2019-06-26T11:12:49.015Z,28.10
2019-06-26T11:15:18.900Z,29.00
2019-06-26T11:17:48.932Z,27.22
2019-06-26T11:20:19.514Z,25.44
2019-06-26T11:22:50.099Z,26.12
2019-06-26T11:25:22.045Z,25.22
2019-06-26T11:27:52.287Z,27.07
2019-06-26T11:30:23.194Z,25.84
2019-06-26T11:32:53.703Z,25.48
2019-06-26T11:35:23.987Z,25.81
2019-06-26T11:37:54.406Z,28.21
2019-06-26T11:40:24.884Z,28.71
2019-06-26T11:42:54.923Z,27.85
2019-06-26T11:45:25.234Z,26.48
2019-06-26T11:47:55.488Z,28.71
2019-06-26T11:50:26.020Z,28.04
2019-06-26T11:52:56.301Z,27.19
2019-06-26T11:55:26.386Z,26.82
2019-06-26T11:57:56.472Z,27.61
2019-06-26T12:00:28.348Z,27.06
2019-06-26T12:02:59.106Z,25.97
2019-06-26T12:05:29.382Z,24.34
2019-06-26T12:07:59.574Z,25.13
2019-06-26T12:10:29.709Z,23.52
2019-06-26T12:13:03.744Z,25.16
2019-06-26T12:15:32.049Z,24.85
2019-06-26T12:18:02.343Z,25.76
2019-06-26T12:20:32.842Z,25.54
2019-06-26T12:23:03.024Z,24.46
2019-06-26T12:25:33.790Z,23.84
2019-06-26T12:28:03.977Z,23.22
2019-06-26T12:30:34.349Z,22.47
2019-06-26T12:33:04.592Z,23.73
2019-06-26T12:35:35.099Z,24.25
2019-06-26T12:38:05.324Z,23.23
2019-06-26T12:40:35.550Z,23.03
2019-06-26T12:43:06.039Z,22.27
2019-06-26T12:45:36.844Z,22.39
2019-06-26T12:48:07.276Z,22.71
2019-06-26T12:50:37.682Z,23.12
2019-06-26T12:53:08.272Z,23.23
2019-06-26T12:55:39.001Z,22.31
2019-06-26T12:58:13.835Z,22.65
2019-06-26T13:00:41.590Z,24.08
2019-06-26T13:03:12.194Z,23.85
2019-06-26T13:05:42.626Z,21.19
2019-06-26T13:08:12.702Z,22.20
2019-06-26T13:10:49.467Z,21.87
2019-06-26T13:13:15.249Z,21.99
2019-06-26T13:15:45.467Z,21.75
2019-06-26T13:18:15.702Z,22.41
2019-06-26T13:20:52.809Z,22.84
2019-06-26T13:23:18.083Z,22.29
2019-06-26T13:25:48.224Z,22.09
2019-06-26T13:28:18.620Z,23.10
2019-06-26T13:30:48.892Z,22.03
2019-06-26T13:33:18.966Z,21.49
2019-06-26T13:35:49.332Z,21.37
2019-06-26T13:38:19.531Z,23.12
2019-06-26T13:40:49.580Z,23.73
2019-06-26T13:43:20.557Z,22.96
2019-06-26T13:45:51.069Z,23.11
2019-06-26T13:48:21.620Z,22.48
2019-06-26T13:51:07.858Z,23.10
2019-06-26T13:53:24.618Z,23.12
2019-06-26T13:55:55.099Z,21.57
2019-06-26T13:58:25.715Z,20.46
2019-06-26T14:00:56.307Z,20.56
2019-06-26T14:03:26.605Z,20.84
2019-06-26T14:05:57.209Z,21.22
2019-06-26T14:08:28.190Z,21.07
2019-06-26T14:10:58.524Z,21.50
2019-06-26T14:13:29.007Z,21.84
2019-06-26T14:15:59.246Z,21.83
2019-06-26T14:18:30.542Z,20.67
2019-06-26T14:21:00.813Z,19.22
2019-06-26T14:23:31.182Z,20.21
2019-06-26T14:26:01.450Z,20.59
2019-06-26T14:28:31.742Z,22.32
2019-06-26T14:31:01.887Z,22.69
2019-06-26T14:33:32.261Z,24.04
2019-06-26T14:36:02.906Z,24.00
2019-06-26T14:38:33.227Z,23.44
2019-06-26T14:41:03.611Z,24.22
2019-06-26T14:43:34.427Z,21.82
2019-06-26T14:46:05.065Z,22.75
2019-06-26T14:48:36.142Z,23.25
2019-06-26T14:51:06.765Z,25.12
2019-06-26T14:53:36.916Z,24.96
2019-06-26T14:56:07.434Z,24.29
2019-06-26T14:58:38.115Z,22.50
2019-06-26T15:01:08.757Z,22.38
2019-06-26T15:03:39.311Z,22.55
2019-06-26T15:06:16.231Z,21.61
2019-06-26T15:08:42.151Z,21.47
2019-06-26T15:11:15.545Z,20.94
2019-06-26T15:13:44.972Z,22.00
2019-06-26T15:16:15.436Z,22.76
2019-06-26T15:18:45.799Z,21.78
2019-06-26T15:21:16.063Z,22.94
2019-06-26T15:23:46.777Z,23.69
2019-06-26T15:26:17.324Z,24.48
2019-06-26T15:28:48.102Z,25.02
2019-06-26T15:31:18.301Z,25.11
2019-06-26T15:33:49.187Z,25.31
2019-06-26T15:36:19.359Z,26.41
2019-06-26T15:38:49.600Z,26.55
2019-06-26T15:41:20.406Z,27.61
2019-06-26T15:43:50.858Z,28.57
2019-06-26T15:46:21.255Z,28.79
2019-06-26T15:48:51.587Z,29.71
2019-06-26T15:51:22.241Z,30.85
2019-06-26T15:53:52.588Z,29.17
2019-06-26T15:56:22.993Z,27.68
2019-06-26T15:58:53.474Z,29.10
2019-06-26T16:01:25.374Z,28.75
2019-06-26T16:03:55.709Z,31.23
2019-06-26T16:06:26.265Z,29.92
2019-06-26T16:08:56.776Z,27.80
2019-06-26T16:11:27.656Z,30.37
2019-06-26T16:13:59.449Z,30.44
2019-06-26T16:16:30.417Z,29.46
2019-06-26T16:19:06.982Z,28.91
2019-06-26T16:21:37.636Z,29.77
2019-06-26T16:24:08.098Z,32.93
2019-06-26T16:26:38.522Z,30.55
2019-06-26T16:29:09.073Z,27.66
2019-06-26T16:31:39.775Z,28.24
2019-06-26T16:34:09.991Z,37.15
2019-06-26T16:36:40.401Z,31.66
2019-06-26T16:39:11.242Z,38.03
2019-06-26T16:41:42.098Z,34.62
2019-06-26T16:44:12.822Z,30.90
2019-06-26T16:46:43.317Z,30.53
2019-06-26T16:49:14.008Z,28.40
2019-06-26T16:51:44.578Z,31.42
2019-06-26T16:54:14.989Z,32.38
2019-06-26T16:56:45.287Z,36.28
2019-06-26T16:59:15.768Z,37.66
2019-06-26T17:01:45.923Z,38.54
2019-06-26T17:04:16.094Z,37.85
2019-06-26T17:06:46.231Z,34.92
2019-06-26T17:09:16.601Z,31.11
2019-06-26T17:11:46.790Z,38.50
2019-06-26T17:14:17.459Z,40.75
2019-06-26T17:16:47.484Z,40.54
2019-06-26T17:19:17.910Z,41.60
2019-06-26T17:21:49.010Z,38.77
2019-06-26T17:24:19.449Z,42.14
2019-06-26T17:26:49.534Z,42.22
2019-06-26T17:29:20.287Z,41.82
2019-06-26T17:31:50.725Z,39.31
2019-06-26T17:34:20.922Z,38.32
2019-06-26T17:36:51.493Z,36.69
2019-06-26T17:39:22.117Z,35.70
2019-06-26T17:41:53.046Z,35.72
2019-06-26T17:44:23.677Z,35.89
2019-06-26T17:46:54.075Z,35.90
2019-06-26T17:49:24.711Z,36.84
2019-06-26T17:51:55.428Z,37.21
2019-06-26T17:54:25.670Z,37.86
2019-06-26T17:56:56.297Z,36.94
2019-06-26T17:59:26.813Z,37.34
2019-06-26T18:01:57.584Z,38.92
2019-06-26T18:04:27.752Z,39.41
2019-06-26T18:06:58.377Z,39.07
2019-06-26T18:09:29.210Z,40.04
2019-06-26T18:11:59.690Z,39.38
2019-06-26T18:14:30.363Z,39.59
2019-06-26T18:17:01.266Z,40.27
2019-06-26T18:19:31.820Z,41.93
2019-06-26T18:22:01.845Z,42.60
2019-06-26T18:24:32.411Z,43.30
2019-06-26T18:27:02.516Z,45.36
2019-06-26T18:29:32.733Z,46.87
2019-06-26T18:32:03.143Z,47.24
2019-06-26T18:34:34.045Z,47.76
2019-06-26T18:37:04.444Z,48.35
2019-06-26T18:39:34.933Z,48.22
2019-06-26T18:42:05.604Z,49.70
2019-06-26T18:44:35.907Z,48.74
2019-06-26T18:47:07.139Z,49.88
2019-06-26T18:49:37.318Z,47.73
2019-06-26T18:52:07.989Z,48.45
2019-06-26T18:54:38.385Z,49.03
2019-06-26T18:57:08.743Z,50.09
2019-06-26T18:59:42.209Z,50.31
2019-06-26T19:02:11.452Z,50.28
2019-06-26T19:04:41.982Z,51.64
2019-06-26T19:07:12.265Z,51.38
2019-06-26T19:09:42.611Z,51.48
2019-06-26T19:12:12.675Z,51.18
2019-06-26T19:14:46.078Z,50.92
2019-06-26T19:17:15.522Z,51.25
2019-06-26T19:19:46.090Z,51.71
2019-06-26T19:22:16.736Z,50.66
2019-06-26T19:24:46.842Z,50.44
2019-06-26T19:27:17.781Z,50.83
2019-06-26T19:29:48.007Z,50.18
2019-06-26T19:32:18.353Z,50.50
2019-06-26T19:34:48.627Z,51.01
2019-06-26T19:37:19.290Z,50.59
2019-06-26T19:39:49.896Z,50.03
2019-06-26T19:42:20.296Z,49.91
2019-06-26T19:44:50.766Z,51.52
2019-06-26T19:47:21.232Z,51.38
2019-06-26T19:49:51.746Z,52.22
2019-06-26T19:52:22.620Z,51.47
2019-06-26T19:54:52.751Z,52.63
2019-06-26T19:57:23.665Z,53.12
2019-06-26T19:59:54.161Z,53.92
2019-06-26T20:02:24.693Z,54.06
2019-06-26T20:04:55.739Z,54.33
2019-06-26T20:07:27.448Z,54.42
2019-06-26T20:10:01.563Z,54.59
2019-06-26T20:12:29.814Z,54.57
2019-06-26T20:14:59.795Z,55.00
2019-06-26T20:17:30.367Z,55.50
2019-06-26T20:20:00.627Z,55.80
2019-06-26T20:22:30.668Z,55.23
2019-06-26T20:25:00.736Z,55.19
2019-06-26T20:27:30.622Z,55.00
2019-06-26T20:30:00.360Z,54.62
2019-06-26T20:32:30.161Z,53.41
2019-06-26T20:35:00.087Z,52.77
2019-06-26T20:37:30.105Z,52.45
2019-06-26T20:39:59.816Z,52.46
2019-06-26T20:42:29.563Z,51.81
2019-06-26T20:44:59.420Z,52.26
2019-06-26T20:47:29.155Z,52.07
2019-06-26T20:49:58.951Z,51.85
2019-06-26T20:52:28.763Z,52.06
2019-06-26T20:55:01.882Z,52.03
2019-06-26T20:57:30.179Z,51.63
2019-06-26T20:59:59.822Z,51.62
2019-06-26T21:02:29.747Z,51.89
2019-06-26T21:04:59.557Z,52.11
2019-06-26T21:07:29.227Z,52.01
2019-06-26T21:09:58.964Z,51.72
2019-06-26T21:12:28.730Z,51.96
2019-06-26T21:14:58.407Z,52.26
2019-06-26T21:17:28.289Z,52.68
2019-06-26T21:19:58.084Z,52.52
2019-06-26T21:22:27.824Z,52.61
2019-06-26T21:24:57.681Z,52.93
2019-06-26T21:27:27.532Z,53.17
2019-06-26T21:29:57.176Z,53.30
2019-06-26T21:32:27.069Z,53.03
2019-06-26T21:34:56.819Z,53.63
2019-06-26T21:37:26.675Z,53.96
2019-06-26T21:39:56.351Z,53.82
2019-06-26T21:42:26.091Z,54.14
2019-06-26T21:44:55.678Z,54.25
2019-06-26T21:47:25.296Z,54.73
2019-06-26T21:49:55.016Z,54.76
2019-06-26T21:52:24.754Z,54.81
2019-06-26T21:54:54.586Z,55.27
2019-06-26T21:57:24.547Z,55.36
2019-06-26T21:59:54.551Z,55.50
2019-06-26T22:02:24.592Z,55.77
2019-06-26T22:04:54.451Z,55.87
2019-06-26T22:07:24.737Z,56.30
2019-06-26T22:09:55.576Z,56.30
2019-06-26T22:12:25.654Z,56.60
2019-06-26T22:14:55.462Z,56.38
2019-06-26T22:17:25.483Z,56.86
2019-06-26T22:19:55.177Z,56.98
2019-06-26T22:22:25.134Z,57.10
2019-06-26T22:24:54.964Z,57.16
2019-06-26T22:27:24.950Z,57.19
2019-06-26T22:29:54.858Z,57.07
2019-06-26T22:32:24.805Z,57.47
2019-06-26T22:34:54.935Z,57.72
2019-06-26T22:37:25.018Z,58.34
2019-06-26T22:39:54.887Z,57.93
2019-06-26T22:42:25.126Z,58.21
2019-06-26T22:44:54.887Z,58.40
2019-06-26T22:47:24.709Z,58.22
2019-06-26T22:49:54.598Z,58.74
2019-06-26T22:52:24.738Z,58.89
2019-06-26T22:54:54.505Z,58.87
2019-06-26T22:57:24.673Z,59.30
2019-06-26T22:59:54.398Z,59.19
2019-06-26T23:02:24.544Z,59.41
2019-06-26T23:04:54.297Z,58.65
2019-06-26T23:07:24.309Z,58.99
2019-06-26T23:09:54.086Z,59.22
2019-06-26T23:12:23.986Z,59.65
2019-06-26T23:14:53.691Z,60.08
2019-06-26T23:17:23.762Z,60.11
2019-06-26T23:19:53.579Z,60.24
2019-06-26T23:22:23.534Z,60.09
2019-06-26T23:24:53.230Z,60.46
2019-06-26T23:27:22.972Z,60.86
2019-06-26T23:29:52.614Z,61.13
2019-06-26T23:32:22.291Z,61.13
2019-06-26T23:34:52.070Z,60.93
2019-06-26T23:37:21.777Z,61.33
2019-06-26T23:39:51.724Z,61.66
2019-06-26T23:42:21.570Z,61.98
2019-06-26T23:44:51.449Z,62.10
2019-06-26T23:47:21.324Z,61.97
2019-06-26T23:49:51.109Z,62.49
2019-06-26T23:52:20.746Z,62.49
2019-06-26T23:54:50.440Z,62.70
2019-06-26T23:57:20.292Z,62.88
2019-06-26T23:59:50.038Z,63.33
